Time;durP1;ratioP1;P1;durP2;ratioP2;P2;SDS_P1;SDS_P2;PMS_P1;PMS_P2;Temp;Humidity;BMP_temperature;BMP_pressure;BME280_temperature;BME280_humidity;BME280_pressure;Samples;Min_cycle;Max_cycle;Signal;HPM_P1;HPM_P2
2024/01/23 00:01:15;;;;;;;8.43;1.67;;;;;;;;;;5093750;28;20027;-68
2024/01/23 00:03:41;;;;;;;15.63;2.07;;;;;;;;;;5097362;27;20054;-68
2024/01/23 00:06:06;;;;;;;9.87;1.67;;;;;;;;;;5122232;27;20023;-68
2024/01/23 00:08:31;;;;;;;17.17;2.57;;;;;;;;;;5100670;28;20387;-69
2024/01/23 00:10:57;;;;;;;10.93;1.70;;;;;;;;;;5111948;27;20150;-68
2024/01/23 00:13:22;;;;;;;8.33;1.73;;;;;;;;;;5108534;27;20028;-67
2024/01/23 00:15:48;;;;;;;10.07;2.13;;;;;;;;;;5118173;27;20020;-67
2024/01/23 00:18:13;;;;;;;14.37;2.83;;;;;;;;;;5110489;27;20074;-68
2024/01/23 00:20:38;;;;;;;11.87;1.47;;;;;;;;;;5114049;27;20023;-68
2024/01/23 00:23:03;;;;;;;8.40;1.57;;;;;;;;;;5115186;27;20065;-68
2024/01/23 00:25:29;;;;;;;4.10;1.13;;;;;;;;;;5110861;27;20054;-62
2024/01/23 00:27:54;;;;;;;5.87;1.53;;;;;;;;;;5115554;27;20023;-62
2024/01/23 00:30:19;;;;;;;10.60;1.73;;;;;;;;;;5108893;27;20040;-62
2024/01/23 00:32:45;;;;;;;11.33;1.17;;;;;;;;;;5113616;27;20467;-61
2024/01/23 00:35:10;;;;;;;8.37;1.40;;;;;;;;;;5113336;27;20015;-62
2024/01/23 00:37:35;;;;;;;13.07;1.97;;;;;;;;;;5119591;27;20027;-62
2024/01/23 00:40:02;;;;;;;8.73;1.80;;;;;;;;;;5117239;27;20027;-61
2024/01/23 00:42:27;;;;;;;11.20;1.57;;;;;;;;;;5107353;27;20023;-62
2024/01/23 00:44:53;;;;;;;13.83;1.70;;;;;;;;;;5109177;27;20031;-62
2024/01/23 00:47:19;;;;;;;15.90;1.60;;;;;;;;;;5111227;27;20019;-62
2024/01/23 00:49:44;;;;;;;12.60;2.30;;;;;;;;;;5108104;27;20016;-62
2024/01/23 00:52:09;;;;;;;7.10;1.33;;;;;;;;;;5100236;28;20023;-61
2024/01/23 00:54:35;;;;;;;9.63;1.80;;;;;;;;;;5106768;27;20039;-63
2024/01/23 00:57:00;;;;;;;10.27;1.97;;;;;;;;;;5116961;27;20031;-61
2024/01/23 00:59:25;;;;;;;7.73;1.60;;;;;;;;;;5109761;27;20047;-61
2024/01/23 01:01:50;;;;;;;6.80;1.50;;;;;;;;;;5115163;27;20097;-62
2024/01/23 01:04:16;;;;;;;11.93;1.70;;;;;;;;;;5113587;27;20063;-59
2024/01/23 01:06:41;;;;;;;8.10;2.03;;;;;;;;;;5118711;27;20110;-60
2024/01/23 01:09:07;;;;;;;6.40;1.53;;;;;;;;;;5113409;27;20023;-60
2024/01/23 01:11:33;;;;;;;11.73;1.53;;;;;;;;;;5116634;27;20565;-60
2024/01/23 01:13:58;;;;;;;7.33;1.17;;;;;;;;;;5112385;27;20032;-59
2024/01/23 01:16:23;;;;;;;12.57;1.90;;;;;;;;;;5113672;27;20032;-60
2024/01/23 01:18:49;;;;;;;8.80;1.77;;;;;;;;;;5113505;27;20031;-60
2024/01/23 01:21:14;;;;;;;9.30;1.60;;;;;;;;;;5108444;27;20034;-59
2024/01/23 01:23:39;;;;;;;9.90;2.37;;;;;;;;;;5101889;27;20061;-60
2024/01/23 01:26:04;;;;;;;5.70;1.50;;;;;;;;;;5115407;27;20027;-60
2024/01/23 01:28:30;;;;;;;10.83;1.80;;;;;;;;;;5092882;28;20026;-59
2024/01/23 01:30:55;;;;;;;8.80;1.43;;;;;;;;;;5110907;27;20059;-60
2024/01/23 01:33:21;;;;;;;14.30;1.60;;;;;;;;;;5110067;27;20020;-62
2024/01/23 01:35:46;;;;;;;12.03;1.43;;;;;;;;;;5110934;27;20027;-60
2024/01/23 01:38:11;;;;;;;7.10;1.90;;;;;;;;;;5098321;27;20032;-61
2024/01/23 01:40:36;;;;;;;10.70;1.50;;;;;;;;;;5109998;27;20510;-60
2024/01/23 01:43:02;;;;;;;12.47;2.37;;;;;;;;;;5112418;27;20049;-60
2024/01/23 01:45:27;;;;;;;12.13;1.67;;;;;;;;;;5108547;27;20032;-60
2024/01/23 01:47:56;;;;;;;8.47;1.43;;;;;;;;;;5112832;27;20031;-61
2024/01/23 01:50:21;;;;;;;9.60;1.60;;;;;;;;;;5111036;27;20403;-61
2024/01/23 01:52:47;;;;;;;10.23;1.97;;;;;;;;;;5099673;27;20027;-61
2024/01/23 01:55:12;;;;;;;13.20;1.80;;;;;;;;;;5102940;27;20016;-60
2024/01/23 01:57:41;;;;;;;7.43;1.40;;;;;;;;;;5117661;27;20047;-60
2024/01/23 02:00:07;;;;;;;7.93;1.53;;;;;;;;;;5119323;27;20023;-60
2024/01/23 02:02:32;;;;;;;13.13;2.63;;;;;;;;;;5110146;27;20019;-60
2024/01/23 02:04:58;;;;;;;7.80;1.50;;;;;;;;;;5096774;28;20026;-60
2024/01/23 02:07:23;;;;;;;9.27;1.70;;;;;;;;;;5087153;28;20031;-60
2024/01/23 02:09:48;;;;;;;10.47;1.67;;;;;;;;;;5097151;28;20474;-60
2024/01/23 02:12:13;;;;;;;26.97;2.27;;;;;;;;;;5089192;28;20067;-61
2024/01/23 02:14:39;;;;;;;9.40;1.50;;;;;;;;;;5100235;28;20016;-60
2024/01/23 02:17:04;;;;;;;11.77;1.90;;;;;;;;;;5094121;28;20019;-60
2024/01/23 02:19:29;;;;;;;7.77;1.90;;;;;;;;;;5087478;28;20027;-62
2024/01/23 02:21:54;;;;;;;12.97;2.00;;;;;;;;;;5098141;28;20032;-60
2024/01/23 02:24:20;;;;;;;6.03;1.80;;;;;;;;;;5087083;28;20040;-60
2024/01/23 02:26:45;;;;;;;10.40;1.30;;;;;;;;;;5093434;28;20020;-60
2024/01/23 02:29:11;;;;;;;5.97;1.40;;;;;;;;;;5090207;28;20020;-60
2024/01/23 02:31:36;;;;;;;9.03;1.90;;;;;;;;;;5086530;28;20030;-60
2024/01/23 02:34:01;;;;;;;4.47;1.47;;;;;;;;;;5094037;28;20093;-60
2024/01/23 02:36:27;;;;;;;8.93;1.67;;;;;;;;;;5088906;28;20546;-60
2024/01/23 02:38:52;;;;;;;4.93;1.27;;;;;;;;;;5090579;28;20051;-60
2024/01/23 02:41:17;;;;;;;13.27;1.87;;;;;;;;;;5088388;28;20073;-59
2024/01/23 02:43:42;;;;;;;9.27;1.57;;;;;;;;;;5088840;28;20054;-60
2024/01/23 02:46:08;;;;;;;16.23;1.93;;;;;;;;;;5092573;28;20903;-67
2024/01/23 02:48:33;;;;;;;6.27;1.43;;;;;;;;;;5092811;28;20024;-67
2024/01/23 02:50:58;;;;;;;9.27;1.70;;;;;;;;;;5087298;28;20020;-66
2024/01/23 02:53:23;;;;;;;10.27;1.70;;;;;;;;;;5089706;28;20016;-66
2024/01/23 02:55:48;;;;;;;12.00;1.33;;;;;;;;;;5094379;28;20150;-66
2024/01/23 02:58:15;;;;;;;7.57;1.57;;;;;;;;;;5094001;28;20024;-66
2024/01/23 03:00:42;;;;;;;11.63;1.90;;;;;;;;;;5085607;28;20454;-67
2024/01/23 03:03:07;;;;;;;8.73;1.73;;;;;;;;;;5088182;28;20134;-67
2024/01/23 03:05:32;;;;;;;4.97;1.20;;;;;;;;;;5108368;28;20106;-67
2024/01/23 03:07:58;;;;;;;10.70;2.00;;;;;;;;;;5116967;28;20027;-66
2024/01/23 03:10:23;;;;;;;13.33;2.33;;;;;;;;;;5114525;28;20427;-66
2024/01/23 03:12:48;;;;;;;10.83;1.43;;;;;;;;;;5114718;27;20065;-66
2024/01/23 03:15:14;;;;;;;11.03;1.63;;;;;;;;;;5123347;27;20016;-67
2024/01/23 03:17:39;;;;;;;14.47;2.00;;;;;;;;;;5120857;27;20020;-66
2024/01/23 03:20:05;;;;;;;6.10;1.73;;;;;;;;;;5120010;27;20020;-67
2024/01/23 03:22:30;;;;;;;10.23;1.60;;;;;;;;;;5122473;27;20024;-67
2024/01/23 03:24:56;;;;;;;17.10;2.03;;;;;;;;;;5120118;27;20040;-67
2024/01/23 03:27:21;;;;;;;8.80;1.67;;;;;;;;;;5115055;27;20372;-67
2024/01/23 03:29:46;;;;;;;11.70;2.20;;;;;;;;;;5124739;27;20522;-66
2024/01/23 03:32:12;;;;;;;15.13;2.50;;;;;;;;;;5125153;27;20376;-66
2024/01/23 03:34:38;;;;;;;13.43;2.07;;;;;;;;;;5121066;27;20022;-68
2024/01/23 03:37:03;;;;;;;7.07;1.47;;;;;;;;;;5097249;28;20023;-66
2024/01/23 03:39:30;;;;;;;10.40;1.53;;;;;;;;;;5109870;27;20062;-67
2024/01/23 03:41:56;;;;;;;17.30;2.10;;;;;;;;;;5117612;27;20499;-66
2024/01/23 03:44:21;;;;;;;12.03;1.73;;;;;;;;;;5114810;27;20019;-67
2024/01/23 03:46:49;;;;;;;8.83;1.67;;;;;;;;;;5109361;27;20072;-67
2024/01/23 03:49:15;;;;;;;22.27;2.87;;;;;;;;;;5102782;27;20030;-67
2024/01/23 03:51:40;;;;;;;8.03;1.63;;;;;;;;;;5110336;27;20011;-65
2024/01/23 03:54:05;;;;;;;12.13;1.80;;;;;;;;;;5102465;27;20171;-67
2024/01/23 03:56:30;;;;;;;15.37;2.63;;;;;;;;;;5114453;27;20384;-67
2024/01/23 03:58:56;;;;;;;12.23;1.73;;;;;;;;;;5114316;27;20023;-67
2024/01/23 04:01:21;;;;;;;8.73;1.87;;;;;;;;;;5114975;27;20019;-67
2024/01/23 04:03:46;;;;;;;11.60;2.30;;;;;;;;;;5105296;27;20052;-67
2024/01/23 04:06:11;;;;;;;11.07;1.60;;;;;;;;;;5096434;28;20023;-67
2024/01/23 04:08:37;;;;;;;15.23;2.57;;;;;;;;;;5092160;28;20055;-66
2024/01/23 04:11:02;;;;;;;14.50;1.70;;;;;;;;;;5095238;28;20383;-67
2024/01/23 04:13:27;;;;;;;14.73;2.00;;;;;;;;;;5093047;28;20067;-67
2024/01/23 04:15:53;;;;;;;8.77;1.80;;;;;;;;;;5098086;28;20019;-67
2024/01/23 04:18:18;;;;;;;9.57;2.47;;;;;;;;;;5098649;28;20126;-66
2024/01/23 04:20:43;;;;;;;11.53;2.60;;;;;;;;;;5097246;28;20552;-67
2024/01/23 04:23:08;;;;;;;12.27;1.70;;;;;;;;;;5102803;28;20433;-66
2024/01/23 04:25:34;;;;;;;15.00;2.60;;;;;;;;;;5100794;28;20024;-67
2024/01/23 04:27:59;;;;;;;10.93;1.97;;;;;;;;;;5101479;28;20028;-67
2024/01/23 04:30:25;;;;;;;15.97;1.97;;;;;;;;;;5094930;28;20012;-67
2024/01/23 04:32:50;;;;;;;16.63;2.20;;;;;;;;;;5100513;28;20024;-68
2024/01/23 04:35:16;;;;;;;14.33;2.10;;;;;;;;;;5098575;28;20016;-67
2024/01/23 04:37:41;;;;;;;13.37;2.00;;;;;;;;;;5098956;28;20077;-67
2024/01/23 04:40:08;;;;;;;17.97;2.37;;;;;;;;;;5099972;28;20035;-67
2024/01/23 04:42:36;;;;;;;12.90;1.80;;;;;;;;;;5099287;28;20027;-66
2024/01/23 04:45:01;;;;;;;11.70;1.77;;;;;;;;;;5094409;28;20041;-67
2024/01/23 04:47:26;;;;;;;12.33;1.60;;;;;;;;;;5095568;28;20017;-67
2024/01/23 04:49:52;;;;;;;14.63;1.67;;;;;;;;;;5100744;28;20037;-67
2024/01/23 04:52:17;;;;;;;13.60;2.27;;;;;;;;;;5094091;28;20023;-67
2024/01/23 04:54:42;;;;;;;18.80;2.40;;;;;;;;;;5095383;28;20050;-67
2024/01/23 04:57:08;;;;;;;8.53;1.60;;;;;;;;;;5088520;28;20008;-67
2024/01/23 04:59:33;;;;;;;16.03;2.97;;;;;;;;;;5089831;28;20075;-67
2024/01/23 05:01:58;;;;;;;16.00;2.23;;;;;;;;;;5090260;28;20020;-67
2024/01/23 05:04:24;;;;;;;9.03;1.60;;;;;;;;;;5114004;27;20127;-67
2024/01/23 05:06:49;;;;;;;15.63;2.30;;;;;;;;;;5109889;27;20049;-61
2024/01/23 05:09:14;;;;;;;13.27;2.27;;;;;;;;;;5110282;27;20077;-60
2024/01/23 05:11:40;;;;;;;13.07;2.27;;;;;;;;;;5111158;27;20016;-60
2024/01/23 05:14:05;;;;;;;10.50;1.70;;;;;;;;;;5114480;27;20502;-60
2024/01/23 05:16:31;;;;;;;13.40;2.00;;;;;;;;;;5114396;27;20043;-61
2024/01/23 05:18:56;;;;;;;10.80;1.87;;;;;;;;;;5109842;27;20020;-61
2024/01/23 05:21:21;;;;;;;12.77;2.10;;;;;;;;;;5115246;27;20023;-60
2024/01/23 05:23:47;;;;;;;12.70;2.27;;;;;;;;;;5109471;27;20472;-61
2024/01/23 05:26:12;;;;;;;8.47;1.77;;;;;;;;;;5116599;27;20111;-60
2024/01/23 05:28:37;;;;;;;18.40;2.47;;;;;;;;;;5103016;27;20055;-61
2024/01/23 05:31:02;;;;;;;11.73;2.17;;;;;;;;;;5112660;27;20372;-61
2024/01/23 05:33:27;;;;;;;18.20;2.23;;;;;;;;;;5118055;27;20086;-61
2024/01/23 05:35:53;;;;;;;12.30;2.40;;;;;;;;;;5121435;27;20034;-62
2024/01/23 05:38:18;;;;;;;11.03;1.90;;;;;;;;;;5118387;27;20027;-61
2024/01/23 05:40:43;;;;;;;15.17;2.30;;;;;;;;;;5115266;27;20015;-60
2024/01/23 05:43:09;;;;;;;10.40;2.10;;;;;;;;;;5107560;27;20031;-60
2024/01/23 05:45:34;;;;;;;14.47;2.00;;;;;;;;;;5104661;27;20051;-61
2024/01/23 05:47:59;;;;;;;13.73;2.37;;;;;;;;;;5101164;27;20019;-61
2024/01/23 05:50:24;;;;;;;14.43;2.33;;;;;;;;;;5118180;27;20039;-60
2024/01/23 05:52:49;;;;;;;13.27;2.40;;;;;;;;;;5107605;27;20019;-61
2024/01/23 05:55:15;;;;;;;10.97;2.07;;;;;;;;;;5108129;27;20081;-60
2024/01/23 05:57:40;;;;;;;10.50;2.13;;;;;;;;;;5110498;27;20372;-60
2024/01/23 06:00:08;;;;;;;15.47;2.70;;;;;;;;;;5113104;27;20030;-61
2024/01/23 06:02:33;;;;;;;12.37;1.87;;;;;;;;;;5116007;27;20016;-61
2024/01/23 06:04:58;;;;;;;6.73;1.73;;;;;;;;;;5109393;27;20093;-60
2024/01/23 06:07:24;;;;;;;14.87;2.13;;;;;;;;;;5105590;28;20090;-61
2024/01/23 06:09:49;;;;;;;10.67;2.03;;;;;;;;;;5109059;27;20111;-60
2024/01/23 06:12:14;;;;;;;14.53;2.17;;;;;;;;;;5107695;27;20028;-60
2024/01/23 06:14:40;;;;;;;10.43;2.37;;;;;;;;;;5114549;28;20052;-60
2024/01/23 06:17:05;;;;;;;16.93;2.33;;;;;;;;;;5113784;28;20023;-65
2024/01/23 06:19:30;;;;;;;19.27;2.90;;;;;;;;;;5101236;28;20061;-66
2024/01/23 06:21:56;;;;;;;10.63;1.90;;;;;;;;;;5104575;28;20035;-65
2024/01/23 06:24:21;;;;;;;18.10;3.27;;;;;;;;;;5113607;28;20030;-65
2024/01/23 06:26:46;;;;;;;10.83;1.90;;;;;;;;;;5111240;28;20035;-65
2024/01/23 06:29:11;;;;;;;24.67;2.20;;;;;;;;;;5120025;28;20724;-65
2024/01/23 06:31:37;;;;;;;19.43;2.20;;;;;;;;;;5109438;28;20047;-66
2024/01/23 06:34:04;;;;;;;17.77;2.67;;;;;;;;;;5113313;28;20376;-65
2024/01/23 06:36:31;;;;;;;14.10;2.03;;;;;;;;;;5114716;28;20008;-66
2024/01/23 06:38:56;;;;;;;10.50;2.03;;;;;;;;;;5115862;28;20027;-65
2024/01/23 06:41:21;;;;;;;16.40;2.20;;;;;;;;;;5115888;28;20488;-66
2024/01/23 06:43:47;;;;;;;13.57;2.07;;;;;;;;;;5121116;28;20015;-65
2024/01/23 06:46:12;;;;;;;11.73;2.07;;;;;;;;;;5118896;28;20016;-66
2024/01/23 06:48:37;;;;;;;13.07;2.73;;;;;;;;;;5113198;27;20122;-66
2024/01/23 06:51:03;;;;;;;12.67;2.27;;;;;;;;;;5107819;27;20031;-66
2024/01/23 06:53:28;;;;;;;12.83;2.23;;;;;;;;;;5117068;27;20059;-65
2024/01/23 06:55:53;;;;;;;14.13;2.43;;;;;;;;;;5110770;28;20111;-66
2024/01/23 06:58:19;;;;;;;9.93;2.00;;;;;;;;;;5115478;27;20020;-66
2024/01/23 07:00:44;;;;;;;15.30;2.37;;;;;;;;;;5114905;27;20039;-65
2024/01/23 07:03:10;;;;;;;14.53;2.50;;;;;;;;;;5103724;27;20062;-66
2024/01/23 07:05:35;;;;;;;20.40;3.77;;;;;;;;;;5117464;27;20524;-66
2024/01/23 07:08:01;;;;;;;21.67;2.80;;;;;;;;;;5119345;27;20388;-66
2024/01/23 07:10:26;;;;;;;24.87;3.17;;;;;;;;;;5116101;27;20103;-66
2024/01/23 07:12:52;;;;;;;23.33;3.00;;;;;;;;;;5111002;27;20503;-66
2024/01/23 07:15:17;;;;;;;17.13;2.97;;;;;;;;;;5116795;27;20020;-66
2024/01/23 07:17:42;;;;;;;26.83;2.97;;;;;;;;;;5115334;27;20023;-66
2024/01/23 07:20:10;;;;;;;18.93;3.30;;;;;;;;;;5115161;27;20353;-66
2024/01/23 07:22:35;;;;;;;19.60;2.57;;;;;;;;;;5111811;28;20026;-66
2024/01/23 07:25:01;;;;;;;19.47;2.90;;;;;;;;;;5107309;27;20012;-66
2024/01/23 07:27:26;;;;;;;16.23;2.40;;;;;;;;;;5111632;27;20379;-66
2024/01/23 07:29:52;;;;;;;23.43;3.07;;;;;;;;;;5115179;27;20032;-61
2024/01/23 07:32:17;;;;;;;16.93;2.47;;;;;;;;;;5116549;27;20026;-61
2024/01/23 07:34:42;;;;;;;17.53;2.70;;;;;;;;;;5116383;27;20045;-61
2024/01/23 07:37:08;;;;;;;17.50;2.73;;;;;;;;;;5112328;27;20019;-61
2024/01/23 07:39:33;;;;;;;22.57;2.97;;;;;;;;;;5128233;27;20019;-61
2024/01/23 07:41:58;;;;;;;16.20;2.67;;;;;;;;;;5121792;27;20027;-62
2024/01/23 07:44:23;;;;;;;16.97;2.70;;;;;;;;;;5119156;27;20019;-61
2024/01/23 07:46:49;;;;;;;14.73;2.37;;;;;;;;;;5120915;27;20473;-61
2024/01/23 07:49:14;;;;;;;15.63;2.73;;;;;;;;;;5124317;27;20022;-61
2024/01/23 07:51:46;;;;;;;14.43;2.30;;;;;;;;;;5119901;27;20007;-62
2024/01/23 07:54:11;;;;;;;;;;;;;;;;;;5118579;27;20032;-60
2024/01/23 07:56:36;;;;;;;18.52;3.25;;;;;;;;;;5113639;27;19947;-61
2024/01/23 07:59:02;;;;;;;17.33;2.90;;;;;;;;;;5111389;27;20032;-61
2024/01/23 08:01:27;;;;;;;19.87;2.13;;;;;;;;;;5106366;27;20039;-61
2024/01/23 08:03:53;;;;;;;21.20;3.00;;;;;;;;;;5101187;27;20097;-61
2024/01/23 08:06:18;;;;;;;12.30;2.03;;;;;;;;;;5087407;28;20027;-62
2024/01/23 08:08:44;;;;;;;20.20;2.80;;;;;;;;;;5098104;28;20016;-63
2024/01/23 08:11:10;;;;;;;22.07;2.93;;;;;;;;;;5084906;28;20032;-63
2024/01/23 08:13:36;;;;;;;17.33;2.70;;;;;;;;;;5091510;28;20388;-62
2024/01/23 08:16:01;;;;;;;15.30;2.43;;;;;;;;;;5092017;28;20026;-62
2024/01/23 08:18:26;;;;;;;13.00;2.37;;;;;;;;;;5098165;28;20094;-62
2024/01/23 08:20:52;;;;;;;14.97;2.07;;;;;;;;;;5097362;28;20070;-63
2024/01/23 08:23:17;;;;;;;17.20;2.93;;;;;;;;;;5092024;28;20384;-63
2024/01/23 08:25:45;;;;;;;20.57;3.40;;;;;;;;;;5085911;28;20024;-62
2024/01/23 08:28:10;;;;;;;28.30;3.73;;;;;;;;;;5091135;28;20110;-63
2024/01/23 08:30:35;;;;;;;16.80;3.00;;;;;;;;;;5095852;28;20099;-60
2024/01/23 08:33:01;;;;;;;25.13;3.07;;;;;;;;;;5097099;28;20023;-60
2024/01/23 08:35:26;;;;;;;20.00;2.93;;;;;;;;;;5093339;28;20435;-59
2024/01/23 08:37:51;;;;;;;14.47;2.27;;;;;;;;;;5095780;28;20538;-59
2024/01/23 08:40:16;;;;;;;17.17;2.67;;;;;;;;;;5093560;28;20431;-65
2024/01/23 08:42:42;;;;;;;10.70;2.47;;;;;;;;;;5095149;28;20087;-65
2024/01/23 08:45:08;;;;;;;12.93;2.23;;;;;;;;;;5090978;28;20016;-65
2024/01/23 08:47:33;;;;;;;16.50;2.60;;;;;;;;;;5090400;28;20503;-65
2024/01/23 08:49:58;;;;;;;17.50;3.23;;;;;;;;;;5089319;28;20044;-64
2024/01/23 08:52:24;;;;;;;25.67;2.83;;;;;;;;;;5092743;28;20020;-64
2024/01/23 08:54:49;;;;;;;16.20;3.03;;;;;;;;;;5095833;28;20008;-65
2024/01/23 08:57:17;;;;;;;19.80;3.23;;;;;;;;;;5090580;28;20447;-65
2024/01/23 08:59:43;;;;;;;23.13;2.90;;;;;;;;;;5093081;28;20032;-65
2024/01/23 09:02:09;;;;;;;16.30;3.20;;;;;;;;;;5090181;28;20020;-65
2024/01/23 09:04:34;;;;;;;17.70;2.83;;;;;;;;;;5082099;28;20525;-65
2024/01/23 09:06:59;;;;;;;24.63;3.43;;;;;;;;;;5095604;28;20069;-67
2024/01/23 09:09:24;;;;;;;15.53;3.10;;;;;;;;;;5083802;28;20024;-68
2024/01/23 09:11:50;;;;;;;25.97;3.10;;;;;;;;;;5093097;28;20032;-67
2024/01/23 09:14:15;;;;;;;17.37;3.27;;;;;;;;;;5088895;28;20056;-68
2024/01/23 09:16:40;;;;;;;20.87;3.17;;;;;;;;;;5095573;28;20048;-68
2024/01/23 09:19:05;;;;;;;17.33;2.90;;;;;;;;;;5090026;28;20040;-65
2024/01/23 09:21:31;;;;;;;24.57;3.07;;;;;;;;;;5086001;28;20028;-65
2024/01/23 09:23:56;;;;;;;25.70;2.93;;;;;;;;;;5093644;28;20499;-67
2024/01/23 09:26:21;;;;;;;16.27;2.60;;;;;;;;;;5095842;28;20103;-67
2024/01/23 09:28:47;;;;;;;21.53;3.23;;;;;;;;;;5094714;28;20483;-64
2024/01/23 09:31:12;;;;;;;16.30;2.37;;;;;;;;;;5094692;28;20649;-67
2024/01/23 09:33:37;;;;;;;12.10;2.13;;;;;;;;;;5097254;28;20098;-67
2024/01/23 09:36:03;;;;;;;24.53;2.77;;;;;;;;;;5090740;28;20086;-65
2024/01/23 09:38:28;;;;;;;24.33;3.27;;;;;;;;;;5091065;28;20043;-65
2024/01/23 09:40:54;;;;;;;21.73;3.23;;;;;;;;;;5094281;28;20059;-65
2024/01/23 09:43:20;;;;;;;15.33;2.57;;;;;;;;;;5093460;28;20042;-65
2024/01/23 09:45:47;;;;;;;17.20;2.50;;;;;;;;;;5094923;28;20020;-65
2024/01/23 09:48:12;;;;;;;20.93;3.70;;;;;;;;;;5088260;28;20106;-62
2024/01/23 09:50:39;;;;;;;20.90;3.50;;;;;;;;;;5092931;28;20433;-67
2024/01/23 09:53:05;;;;;;;19.73;2.83;;;;;;;;;;5089910;28;20008;-67
2024/01/23 09:55:30;;;;;;;16.67;2.87;;;;;;;;;;5092267;28;20015;-66
2024/01/23 09:57:56;;;;;;;21.43;2.70;;;;;;;;;;5093481;28;20027;-66
2024/01/23 10:00:22;;;;;;;18.20;3.03;;;;;;;;;;5091204;28;20074;-67
2024/01/23 10:02:47;;;;;;;18.37;3.30;;;;;;;;;;5098317;27;20051;-66
2024/01/23 10:05:16;;;;;;;19.90;2.87;;;;;;;;;;5113364;27;20424;-67
2024/01/23 10:07:42;;;;;;;20.57;2.87;;;;;;;;;;5116329;27;20422;-67
2024/01/23 10:10:13;;;;;;;23.70;3.07;;;;;;;;;;5115525;27;20015;-65
2024/01/23 10:12:40;;;;;;;20.05;2.72;;;;;;;;;;5117122;27;20106;-65
2024/01/23 10:15:07;;;;;;;17.33;2.87;;;;;;;;;;5114829;27;20016;-65
2024/01/23 10:17:32;;;;;;;19.40;2.70;;;;;;;;;;5114398;27;20019;-66
2024/01/23 10:19:57;;;;;;;24.97;3.07;;;;;;;;;;5118228;28;20027;-66
2024/01/23 10:22:23;;;;;;;23.43;3.50;;;;;;;;;;5111744;28;20502;-65
2024/01/23 10:24:49;;;;;;;17.97;3.53;;;;;;;;;;5117649;28;20024;-65
2024/01/23 10:27:15;;;;;;;17.00;2.40;;;;;;;;;;5112144;28;20015;-65
2024/01/23 10:29:40;;;;;;;20.17;3.00;;;;;;;;;;5110993;28;20022;-65
2024/01/23 10:32:06;;;;;;;23.63;3.07;;;;;;;;;;5120897;28;20111;-65
2024/01/23 10:34:31;;;;;;;14.30;2.93;;;;;;;;;;5114418;28;20031;-65
2024/01/23 10:36:58;;;;;;;23.73;3.00;;;;;;;;;;5114711;28;20089;-65
2024/01/23 10:39:23;;;;;;;21.07;2.67;;;;;;;;;;5109384;28;20024;-65
2024/01/23 10:41:50;;;;;;;17.53;3.10;;;;;;;;;;5107597;28;20031;-65
2024/01/23 10:44:16;;;;;;;20.23;3.40;;;;;;;;;;5112603;28;20080;-65
2024/01/23 10:46:42;;;;;;;20.30;3.53;;;;;;;;;;5110064;28;20038;-65
2024/01/23 10:49:08;;;;;;;27.20;3.33;;;;;;;;;;5108976;28;20407;-65
2024/01/23 10:51:36;;;;;;;13.93;2.93;;;;;;;;;;5103689;28;20095;-66
2024/01/23 10:54:15;;;;;;;14.73;2.53;;;;;;;;;;5107766;28;20629;-66
2024/01/23 10:56:44;;;;;;;13.63;2.40;;;;;;;;;;5110552;28;20008;-65
2024/01/23 10:59:20;;;;;;;22.60;3.10;;;;;;;;;;5109431;28;20015;-61
2024/01/23 11:01:45;;;;;;;24.30;3.10;;;;;;;;;;5108040;28;20103;-60
2024/01/23 11:04:11;;;;;;;22.53;3.10;;;;;;;;;;5098637;28;20563;-60
2024/01/23 11:06:47;;;;;;;17.37;2.57;;;;;;;;;;5088733;28;20027;-60
2024/01/23 11:09:15;;;;;;;14.33;2.97;;;;;;;;;;5097155;28;20042;-60
2024/01/23 11:11:43;;;;;;;15.80;2.47;;;;;;;;;;5092981;28;20660;-61
2024/01/23 11:14:18;;;;;;;14.30;2.43;;;;;;;;;;5095390;28;20016;-60
2024/01/23 11:17:05;;;;;;;25.87;3.10;;;;;;;;;;5094657;28;20140;-60
2024/01/23 11:19:33;;;;;;;21.87;3.40;;;;;;;;;;5094599;28;20494;-61
2024/01/23 11:22:02;;;;;;;21.47;3.37;;;;;;;;;;5090030;28;20020;-60
2024/01/23 11:24:41;;;;;;;21.43;3.10;;;;;;;;;;5100233;28;20042;-60
2024/01/23 11:27:06;;;;;;;16.47;3.23;;;;;;;;;;5095520;28;20031;-60
2024/01/23 11:29:32;;;;;;;16.47;3.20;;;;;;;;;;5098474;28;20402;-61
2024/01/23 11:31:58;;;;;;;22.57;3.23;;;;;;;;;;5095474;28;20495;-60
2024/01/23 11:34:23;;;;;;;24.23;3.80;;;;;;;;;;5099932;28;20012;-60
2024/01/23 11:36:48;;;;;;;21.97;3.37;;;;;;;;;;5097751;28;20087;-61
2024/01/23 11:39:14;;;;;;;25.90;3.57;;;;;;;;;;5101220;28;20446;-61
2024/01/23 11:41:46;;;;;;;12.27;2.40;;;;;;;;;;5105888;28;20026;-61
2024/01/23 11:44:11;;;;;;;16.57;2.53;;;;;;;;;;5099524;28;20042;-60
2024/01/23 11:46:37;;;;;;;15.47;2.47;;;;;;;;;;5098491;28;20052;-60
2024/01/23 11:49:03;;;;;;;18.90;3.50;;;;;;;;;;5090021;28;20461;-61
2024/01/23 11:51:29;;;;;;;20.37;3.47;;;;;;;;;;5100217;28;20541;-61
2024/01/23 11:54:00;;;;;;;15.80;3.20;;;;;;;;;;5105603;28;20019;-60
2024/01/23 11:56:27;;;;;;;19.20;3.25;;;;;;;;;;5095057;28;20542;-61
2024/01/23 11:58:53;;;;;;;20.23;2.80;;;;;;;;;;5088860;28;20109;-62
2024/01/23 12:01:19;;;;;;;16.40;2.47;;;;;;;;;;5087579;28;20020;-61
2024/01/23 12:03:48;;;;;;;16.33;3.13;;;;;;;;;;5098607;28;20043;-61
2024/01/23 12:06:15;;;;;;;27.07;3.80;;;;;;;;;;5095685;28;20016;-60
2024/01/23 12:08:40;;;;;;;18.10;2.77;;;;;;;;;;5091381;28;20031;-60
2024/01/23 12:11:06;;;;;;;13.33;3.10;;;;;;;;;;5092425;28;20020;-62
2024/01/23 12:13:31;;;;;;;18.27;3.50;;;;;;;;;;5093406;28;20046;-62
2024/01/23 12:15:56;;;;;;;19.63;3.00;;;;;;;;;;5098795;28;20020;-60
2024/01/23 12:18:22;;;;;;;22.43;3.47;;;;;;;;;;5085623;28;20024;-61
2024/01/23 12:20:52;;;;;;;18.10;3.63;;;;;;;;;;5090058;28;20017;-61
2024/01/23 12:23:17;;;;;;;16.10;2.73;;;;;;;;;;5090138;28;20102;-61
2024/01/23 12:25:43;;;;;;;19.90;3.03;;;;;;;;;;5098354;28;20562;-61
2024/01/23 12:28:08;;;;;;;10.03;3.10;;;;;;;;;;5076967;28;20122;-61
2024/01/23 12:30:34;;;;;;;17.07;2.97;;;;;;;;;;5088266;28;20024;-60
2024/01/23 12:32:59;;;;;;;18.13;4.00;;;;;;;;;;5096854;28;20015;-61
2024/01/23 12:35:25;;;;;;;16.53;3.27;;;;;;;;;;5091359;28;20008;-61
2024/01/23 12:37:50;;;;;;;15.13;3.37;;;;;;;;;;5100319;28;20111;-64
2024/01/23 12:40:16;;;;;;;12.70;2.83;;;;;;;;;;5093407;28;20016;-60
2024/01/23 12:42:43;;;;;;;19.10;3.23;;;;;;;;;;5094110;28;20439;-61
2024/01/23 12:45:10;;;;;;;16.97;3.40;;;;;;;;;;5094165;28;20175;-60
2024/01/23 12:47:36;;;;;;;24.80;5.00;;;;;;;;;;5091161;28;20472;-61
2024/01/23 12:50:01;;;;;;;24.47;3.80;;;;;;;;;;5097123;28;20027;-61
2024/01/23 12:52:26;;;;;;;21.43;3.90;;;;;;;;;;5090891;28;20024;-62
2024/01/23 12:54:53;;;;;;;28.90;3.20;;;;;;;;;;5095809;28;20415;-61
2024/01/23 12:57:18;;;;;;;15.37;3.47;;;;;;;;;;5093113;28;20385;-61
2024/01/23 12:59:44;;;;;;;27.70;4.77;;;;;;;;;;5090237;28;20051;-60
2024/01/23 13:02:09;;;;;;;14.87;3.23;;;;;;;;;;5095148;28;20020;-61
2024/01/23 13:04:35;;;;;;;15.10;2.50;;;;;;;;;;5090109;28;20047;-61
2024/01/23 13:07:00;;;;;;;23.30;3.17;;;;;;;;;;5092777;28;20031;-61
2024/01/23 13:09:26;;;;;;;17.97;2.80;;;;;;;;;;5092554;28;20016;-60
2024/01/23 13:11:52;;;;;;;15.93;2.27;;;;;;;;;;5091567;28;20028;-60
2024/01/23 13:14:17;;;;;;;23.60;3.23;;;;;;;;;;5099052;28;20013;-60
2024/01/23 13:16:43;;;;;;;13.53;2.47;;;;;;;;;;5090908;28;20012;-61
2024/01/23 13:19:08;;;;;;;18.97;3.33;;;;;;;;;;5073322;28;20014;-62
2024/01/23 13:21:34;;;;;;;13.20;1.97;;;;;;;;;;5091864;28;20080;-62
2024/01/23 13:23:59;;;;;;;17.57;3.37;;;;;;;;;;5097658;28;20023;-62
2024/01/23 13:26:24;;;;;;;18.77;3.30;;;;;;;;;;5096721;28;20020;-61
2024/01/23 13:28:49;;;;;;;16.60;2.67;;;;;;;;;;5081412;28;20078;-61
2024/01/23 13:31:16;;;;;;;23.67;2.97;;;;;;;;;;5090168;28;20099;-60
2024/01/23 13:33:41;;;;;;;21.67;4.10;;;;;;;;;;5093942;28;20019;-61
2024/01/23 13:36:07;;;;;;;17.13;2.70;;;;;;;;;;5096813;28;20028;-60
2024/01/23 13:38:32;;;;;;;19.03;3.00;;;;;;;;;;5091094;28;20023;-60
2024/01/23 13:40:58;;;;;;;15.97;2.80;;;;;;;;;;5099335;28;20023;-61
2024/01/23 13:43:23;;;;;;;18.33;3.50;;;;;;;;;;5090783;28;20514;-60
2024/01/23 13:45:48;;;;;;;21.17;3.03;;;;;;;;;;5100050;28;20026;-61
2024/01/23 13:48:13;;;;;;;19.50;3.33;;;;;;;;;;5096851;28;20047;-61
2024/01/23 13:50:39;;;;;;;18.97;3.23;;;;;;;;;;5097953;28;20512;-60
2024/01/23 13:53:04;;;;;;;21.63;3.03;;;;;;;;;;5096545;28;20016;-60
2024/01/23 13:55:29;;;;;;;15.23;3.10;;;;;;;;;;5090941;28;20442;-60
2024/01/23 13:57:55;;;;;;;13.70;2.77;;;;;;;;;;5096795;28;20015;-60
2024/01/23 14:00:20;;;;;;;13.27;2.60;;;;;;;;;;5089663;28;20047;-61
2024/01/23 14:02:46;;;;;;;21.63;3.53;;;;;;;;;;5092005;28;20456;-61
2024/01/23 14:05:12;;;;;;;16.40;2.97;;;;;;;;;;5091352;28;20044;-61
2024/01/23 14:07:40;;;;;;;20.23;3.27;;;;;;;;;;5090131;28;20042;-62
2024/01/23 14:10:08;;;;;;;15.27;2.70;;;;;;;;;;5093614;28;20020;-60
2024/01/23 14:12:33;;;;;;;14.27;2.37;;;;;;;;;;5089863;28;20472;-61
2024/01/23 14:14:58;;;;;;;14.90;2.93;;;;;;;;;;5092952;28;20028;-61
2024/01/23 14:17:23;;;;;;;20.57;3.63;;;;;;;;;;5091061;28;20062;-60
2024/01/23 14:19:51;;;;;;;20.30;3.00;;;;;;;;;;5092201;28;20012;-60
2024/01/23 14:22:16;;;;;;;22.00;3.47;;;;;;;;;;5097902;28;20032;-61
2024/01/23 14:24:41;;;;;;;18.30;3.37;;;;;;;;;;5097426;28;20020;-60